Emigsville, PA

11:31 PM EDT on September 30, 2016 (GMT -0400)
Hearthridge Lane | | Change Station

Elev 479 ft 40.00 °N, 76.75 °W | Updated 10 minutes ago

Overcast
Overcast
57.4 °F
Feels Like 57.4 °F
N
1.0
Wind Variable Wind from East
Gusts 5.0 mph

Today
High -- | Low -- °F
--% Chance of Precip.
Yesterday
High -- | Low -- °F
Precip. -- in
Pressure 30.19 in
Visibility 8.0 miles
Clouds Overcast 900 ft
Dew Point 56 °F
Humidity 94%
Rainfall 0.40 in
Snow Depth Not available.
7:02 AM 6:50 PM
New Moon, 0% visible
METAR KTHV 010253Z AUTO 07010KT 8SM OVC009 15/14 A3018 RMK AO2 SLP223 60000 T01500144 55002
Pressure 30.19 in
Visibility 8.0 miles
Clouds Overcast 900 ft
Dew Point 56 °F
Humidity 94%
Rainfall 0.40 in
Snow Depth Not available.
7:02 AM 6:50 PM
New Moon, 0% visible
METAR KTHV 010253Z AUTO 07010KT 8SM OVC009 15/14 A3018 RMK AO2 SLP223 60000 T01500144 55002

10-Day Weather Forecast

Almanac

Astronomy

Sep. 30, 2016 Rise Set
Actual Time
Civil Twilight
Nautical Twilight
Astronomical Twilight
Moon
Length of Visible Light
Length of Day
Tomorrow will be .
, % of the Moon is Illuminated

Today's Extremes

State Highs State Lows

Community

WunderPhotos

Upload Photos

1,942,883 photos uploaded!

WunderBlog® & News

Nearby

Air Quality

  Air Quality AQ Index Pollutant
Not available.

Snow Depth

Station Depth Elevation

Earthquake Activity

City Distance Mag. Time & Date
Minimum magnitude displayed is 2.5.

Coastal Water Temperatures

Place Temperature

Stations

Nearby Weather Stations

Station Location Temp. Windchill Dew Point Humidity Wind Precip. Elev Updated Type
                   

Watches & Warnings

There are currently no watches in effect.